createdAt,value
2022-12-11T00:00:18.098Z,3.00
2022-12-11T00:02:46.890Z,3.10
2022-12-11T00:05:15.958Z,3.10
2022-12-11T00:07:46.089Z,3.00
2022-12-11T00:10:14.850Z,3.10
2022-12-11T00:12:43.423Z,3.10
2022-12-11T00:15:13.156Z,3.10
2022-12-11T00:17:42.138Z,3.10
2022-12-11T00:20:12.120Z,3.10
2022-12-11T00:22:40.780Z,3.10
2022-12-11T00:25:11.862Z,3.10
2022-12-11T00:27:41.026Z,3.10
2022-12-11T00:30:11.326Z,3.00
2022-12-11T00:32:39.896Z,3.00
2022-12-11T00:35:10.534Z,3.10
2022-12-11T00:37:39.291Z,3.10
2022-12-11T00:40:11.596Z,3.00
2022-12-11T00:42:40.271Z,3.10
2022-12-11T00:45:10.425Z,3.10
2022-12-11T00:47:39.322Z,3.10
2022-12-11T00:50:09.416Z,3.00
2022-12-11T00:52:38.149Z,3.10
2022-12-11T00:55:07.935Z,3.10
2022-12-11T00:57:38.252Z,3.10
2022-12-11T01:00:08.536Z,3.10
2022-12-11T01:02:37.177Z,3.10
2022-12-11T01:05:06.852Z,3.10
2022-12-11T01:07:35.639Z,3.10
2022-12-11T01:10:23.293Z,3.10
2022-12-11T01:12:56.878Z,3.10
2022-12-11T01:15:28.236Z,3.00
2022-12-11T01:17:58.128Z,3.00
2022-12-11T01:20:29.236Z,3.10
2022-12-11T01:23:01.961Z,3.00
2022-12-11T01:25:30.790Z,3.00
2022-12-11T01:28:00.905Z,3.00
2022-12-11T01:30:29.530Z,3.00
2022-12-11T01:32:58.270Z,3.10
2022-12-11T01:35:26.858Z,3.10
2022-12-11T01:37:55.620Z,3.00
2022-12-11T01:40:25.034Z,3.00
2022-12-11T01:42:53.738Z,3.00
2022-12-11T01:45:33.355Z,3.10
2022-12-11T01:48:09.370Z,3.00
2022-12-11T01:50:43.269Z,3.00
2022-12-11T01:53:18.894Z,3.10
2022-12-11T01:55:50.900Z,3.10
2022-12-11T01:58:23.722Z,3.10
2022-12-11T02:00:55.915Z,3.00
2022-12-11T02:03:24.665Z,3.10
2022-12-11T02:05:53.461Z,3.10
2022-12-11T02:08:22.910Z,3.00
2022-12-11T02:11:07.682Z,3.10
2022-12-11T02:13:46.003Z,3.00
2022-12-11T02:16:26.386Z,3.10
2022-12-11T02:19:04.125Z,3.10
2022-12-11T02:21:39.678Z,3.10
2022-12-11T02:24:38.989Z,3.10
2022-12-11T02:27:24.892Z,3.10
2022-12-11T02:30:03.781Z,3.10
2022-12-11T02:32:42.203Z,3.10
2022-12-11T02:35:18.684Z,3.10
2022-12-11T02:37:50.967Z,3.10
2022-12-11T02:40:26.072Z,3.10
2022-12-11T02:42:59.002Z,3.10
2022-12-11T02:45:30.317Z,3.00
2022-12-11T02:48:04.432Z,3.10
2022-12-11T02:50:37.339Z,3.00
2022-12-11T02:53:08.320Z,3.00
2022-12-11T02:55:39.199Z,3.00
2022-12-11T02:58:15.792Z,3.00
2022-12-11T03:00:46.833Z,3.00
2022-12-11T03:03:16.382Z,3.00
2022-12-11T03:05:46.251Z,3.00
2022-12-11T03:08:17.599Z,3.00
2022-12-11T03:10:47.097Z,3.00
2022-12-11T03:13:22.835Z,3.00
2022-12-11T03:16:08.440Z,2.90
2022-12-11T03:18:50.434Z,2.90
2022-12-11T03:21:29.342Z,2.90
2022-12-11T03:24:06.557Z,2.90
2022-12-11T03:26:43.550Z,2.90
2022-12-11T03:29:21.278Z,2.90
2022-12-11T03:31:59.661Z,2.90
2022-12-11T03:34:39.730Z,2.90
2022-12-11T03:37:11.744Z,2.90
2022-12-11T03:39:44.945Z,2.90
2022-12-11T03:42:16.551Z,2.90
2022-12-11T03:44:49.649Z,2.90
2022-12-11T03:47:25.060Z,2.90
2022-12-11T03:49:55.983Z,2.90
2022-12-11T03:52:27.658Z,2.90
2022-12-11T03:55:01.993Z,2.90
2022-12-11T03:57:35.802Z,2.90
2022-12-11T04:00:06.011Z,2.90
2022-12-11T04:02:36.070Z,2.90
2022-12-11T04:05:05.334Z,2.80
2022-12-11T04:07:34.040Z,2.90
2022-12-11T04:10:02.869Z,2.90
2022-12-11T04:12:31.558Z,2.90
2022-12-11T04:15:04.767Z,2.80
2022-12-11T04:17:53.924Z,2.80
2022-12-11T04:20:41.412Z,2.90
2022-12-11T04:23:34.113Z,2.90
2022-12-11T04:26:07.386Z,2.90
2022-12-11T04:28:36.959Z,2.80
2022-12-11T04:31:06.896Z,2.80
2022-12-11T04:33:36.888Z,2.80
2022-12-11T04:36:06.114Z,2.80
2022-12-11T04:38:35.114Z,2.80
2022-12-11T04:41:07.639Z,2.70
2022-12-11T04:43:36.814Z,2.70
2022-12-11T04:46:07.961Z,2.70
2022-12-11T04:48:39.285Z,2.60
2022-12-11T04:51:09.520Z,2.50
2022-12-11T04:53:39.158Z,2.50
2022-12-11T04:56:08.993Z,2.60
2022-12-11T04:58:38.969Z,2.50
2022-12-11T05:01:09.814Z,2.50
2022-12-11T05:03:40.620Z,2.40
2022-12-11T05:06:11.472Z,2.50
2022-12-11T05:08:42.668Z,2.50
2022-12-11T05:11:15.334Z,2.40
2022-12-11T05:13:45.609Z,2.50
2022-12-11T05:16:17.595Z,2.50
2022-12-11T05:18:48.613Z,2.50
2022-12-11T05:21:17.685Z,2.50
2022-12-11T05:23:46.389Z,2.60
2022-12-11T05:26:19.298Z,2.50
2022-12-11T05:28:53.365Z,2.50
2022-12-11T05:31:25.110Z,2.50
2022-12-11T05:33:56.066Z,2.50
2022-12-11T05:36:27.444Z,2.60
2022-12-11T05:38:57.380Z,2.60
2022-12-11T05:41:28.817Z,2.60
2022-12-11T05:43:57.652Z,2.50
2022-12-11T05:46:29.586Z,2.50
2022-12-11T05:49:02.861Z,2.50
2022-12-11T05:51:33.927Z,2.50
2022-12-11T05:54:03.036Z,2.50
2022-12-11T05:56:34.271Z,2.50
2022-12-11T05:59:04.988Z,2.50
2022-12-11T06:01:36.576Z,2.50
2022-12-11T06:04:08.887Z,2.50
2022-12-11T06:06:38.374Z,2.40
2022-12-11T06:09:08.233Z,2.40
2022-12-11T06:11:37.666Z,2.30
2022-12-11T06:14:06.524Z,2.40
2022-12-11T06:16:35.146Z,2.40
2022-12-11T06:19:05.330Z,2.40
2022-12-11T06:21:35.318Z,2.40
2022-12-11T06:24:06.806Z,2.30
2022-12-11T06:26:35.426Z,2.30
2022-12-11T06:29:09.005Z,2.30
2022-12-11T06:31:41.110Z,2.30
2022-12-11T06:34:14.291Z,2.30
2022-12-11T06:36:42.960Z,2.40
2022-12-11T06:39:12.312Z,2.30
2022-12-11T06:41:40.928Z,2.40
2022-12-11T06:44:10.113Z,2.30
2022-12-11T06:46:39.112Z,2.30
2022-12-11T06:49:07.771Z,2.30
2022-12-11T06:51:37.729Z,2.20
2022-12-11T06:54:06.599Z,2.20
2022-12-11T06:56:36.451Z,2.20
2022-12-11T06:59:07.550Z,2.20
2022-12-11T07:01:36.541Z,2.20
2022-12-11T07:04:05.180Z,2.10
2022-12-11T07:06:33.864Z,2.10
2022-12-11T07:09:05.811Z,2.00
2022-12-11T07:11:34.673Z,2.00
2022-12-11T07:14:03.438Z,2.10
2022-12-11T07:16:32.106Z,2.00
2022-12-11T07:19:00.685Z,2.00
2022-12-11T07:21:29.364Z,2.10
2022-12-11T07:23:57.964Z,2.10
2022-12-11T07:26:28.353Z,2.10
2022-12-11T07:28:59.689Z,2.10
2022-12-11T07:31:31.055Z,2.10
2022-12-11T07:34:01.787Z,2.00
2022-12-11T07:36:32.469Z,2.00
2022-12-11T07:39:02.045Z,1.90
2022-12-11T07:41:32.174Z,2.00
2022-12-11T07:44:02.103Z,1.90
2022-12-11T07:46:33.626Z,1.90
2022-12-11T07:49:02.963Z,1.80
2022-12-11T07:51:33.983Z,1.90
2022-12-11T07:54:05.502Z,1.90
2022-12-11T07:56:36.485Z,1.80
2022-12-11T07:59:07.833Z,1.80
2022-12-11T08:01:38.874Z,1.80
2022-12-11T08:04:10.282Z,1.90
2022-12-11T08:06:41.245Z,1.90
2022-12-11T08:09:20.692Z,2.00
2022-12-11T08:11:52.183Z,1.90
2022-12-11T08:14:21.946Z,2.10
2022-12-11T08:16:50.906Z,2.40
2022-12-11T08:19:19.685Z,2.50
2022-12-11T08:21:48.359Z,2.50
2022-12-11T08:24:20.705Z,2.30
2022-12-11T08:26:51.266Z,2.30
2022-12-11T08:29:19.907Z,2.30
2022-12-11T08:31:48.563Z,2.10
2022-12-11T08:34:17.198Z,2.10
2022-12-11T08:36:45.782Z,2.00
2022-12-11T08:39:17.595Z,1.90
2022-12-11T08:41:46.393Z,2.00
2022-12-11T08:44:17.134Z,2.00
2022-12-11T08:46:46.947Z,1.90
2022-12-11T08:49:15.702Z,2.00
2022-12-11T08:51:44.584Z,1.90
2022-12-11T08:54:13.354Z,2.00
2022-12-11T08:56:41.963Z,2.00
2022-12-11T08:59:10.819Z,2.00
2022-12-11T09:01:40.863Z,1.90
2022-12-11T09:04:10.631Z,2.00
2022-12-11T09:06:39.346Z,2.00
2022-12-11T09:09:08.399Z,2.00
2022-12-11T09:11:41.189Z,2.00
2022-12-11T09:14:10.032Z,2.00
2022-12-11T09:16:41.896Z,2.00
2022-12-11T09:19:14.832Z,2.00
2022-12-11T09:21:44.756Z,2.00
2022-12-11T09:24:15.129Z,2.10
2022-12-11T09:26:44.131Z,2.10
2022-12-11T09:29:13.927Z,2.20
2022-12-11T09:31:44.378Z,2.20
2022-12-11T09:34:15.050Z,2.30
2022-12-11T09:36:45.383Z,2.40
2022-12-11T09:39:15.983Z,2.50
2022-12-11T09:41:58.198Z,2.50
2022-12-11T09:44:39.198Z,2.50
2022-12-11T09:47:25.128Z,2.60
2022-12-11T09:50:06.004Z,2.70
2022-12-11T09:52:39.533Z,2.80
2022-12-11T09:55:18.803Z,2.70
2022-12-11T09:58:05.366Z,2.50
2022-12-11T10:00:43.712Z,2.60
2022-12-11T10:03:53.968Z,2.70
2022-12-11T10:06:31.858Z,2.90
2022-12-11T10:09:15.560Z,3.10
2022-12-11T10:12:03.883Z,3.30
2022-12-11T10:14:48.804Z,3.10
2022-12-11T10:17:24.596Z,3.10
2022-12-11T10:19:57.846Z,2.90
2022-12-11T10:22:34.157Z,3.00
2022-12-11T10:25:23.353Z,2.90
2022-12-11T10:27:52.770Z,2.80
2022-12-11T10:30:25.387Z,2.70
2022-12-11T10:33:03.481Z,2.80
2022-12-11T10:35:41.417Z,2.80
2022-12-11T10:38:18.585Z,2.70
2022-12-11T10:40:52.970Z,2.70
2022-12-11T10:43:21.989Z,2.80
2022-12-11T10:45:55.895Z,2.80
2022-12-11T10:48:24.532Z,2.90
2022-12-11T10:51:03.789Z,2.90
2022-12-11T10:53:35.589Z,3.00
2022-12-11T10:56:04.780Z,3.10
2022-12-11T10:58:36.539Z,3.00
2022-12-11T11:01:10.356Z,3.10
2022-12-11T11:03:55.834Z,3.10
2022-12-11T11:06:27.580Z,3.00
2022-12-11T11:08:59.247Z,3.10
2022-12-11T11:11:34.332Z,3.00
2022-12-11T11:14:13.314Z,2.90
2022-12-11T11:16:44.560Z,2.90
2022-12-11T11:19:23.846Z,2.80
2022-12-11T11:21:57.609Z,2.80
2022-12-11T11:25:26.620Z,2.70
2022-12-11T11:27:59.374Z,2.70
2022-12-11T11:30:31.970Z,2.60
2022-12-11T11:33:06.884Z,2.50
2022-12-11T11:35:35.592Z,2.50
2022-12-11T11:38:20.128Z,2.50
2022-12-11T11:41:05.580Z,2.50
2022-12-11T11:44:12.854Z,2.60
2022-12-11T11:47:16.992Z,2.60
2022-12-11T11:50:47.585Z,2.50
2022-12-11T11:53:26.712Z,2.50
2022-12-11T11:56:08.206Z,2.50
2022-12-11T11:58:44.914Z,2.50
2022-12-11T12:01:19.376Z,2.50
2022-12-11T12:03:50.516Z,2.50
2022-12-11T12:06:33.157Z,2.50
2022-12-11T12:09:18.643Z,2.40
2022-12-11T12:11:56.654Z,2.40
2022-12-11T12:17:36.173Z,2.40
2022-12-11T12:20:19.759Z,2.30
2022-12-11T12:23:01.653Z,2.30
2022-12-11T12:25:42.008Z,2.20
2022-12-11T12:28:26.391Z,2.20
2022-12-11T12:31:18.418Z,2.30
2022-12-11T12:34:03.987Z,2.30
2022-12-11T12:36:45.257Z,2.40
2022-12-11T12:39:29.393Z,2.50
2022-12-11T12:42:12.607Z,2.50
2022-12-11T12:44:55.276Z,2.40
2022-12-11T12:47:25.358Z,2.50
2022-12-11T12:49:57.248Z,2.40
2022-12-11T12:52:34.860Z,2.30
2022-12-11T12:55:23.030Z,2.30
2022-12-11T12:57:57.585Z,2.30
2022-12-11T13:00:34.629Z,2.30
2022-12-11T13:03:14.797Z,2.30
2022-12-11T13:05:47.468Z,2.30
2022-12-11T13:08:27.245Z,2.30
2022-12-11T13:11:05.055Z,2.20
2022-12-11T13:13:42.739Z,2.20
2022-12-11T13:16:28.773Z,2.10
2022-12-11T13:18:57.502Z,2.10
2022-12-11T13:21:33.864Z,2.10
2022-12-11T13:24:25.686Z,2.10
2022-12-11T13:26:54.734Z,2.20
2022-12-11T13:29:38.102Z,2.00
2022-12-11T13:32:25.777Z,2.10
2022-12-11T13:34:58.417Z,2.10
2022-12-11T13:37:34.877Z,2.10
2022-12-11T13:40:10.218Z,2.00
2022-12-11T13:42:50.148Z,2.10
2022-12-11T13:45:28.521Z,2.10
2022-12-11T13:47:59.357Z,2.00
2022-12-11T13:50:33.215Z,1.90
2022-12-11T13:53:05.070Z,1.90
2022-12-11T13:55:36.434Z,1.90
2022-12-11T13:58:05.191Z,1.90
2022-12-11T14:00:35.554Z,1.90
2022-12-11T14:03:08.526Z,1.90
2022-12-11T14:05:37.694Z,1.80
2022-12-11T14:08:11.297Z,1.90
2022-12-11T14:10:41.546Z,1.90
2022-12-11T14:13:23.170Z,1.90
2022-12-11T14:15:54.842Z,2.00
2022-12-11T14:18:27.696Z,1.90
2022-12-11T14:20:57.979Z,1.90
2022-12-11T14:23:30.170Z,1.90
2022-12-11T14:29:27.855Z,2.00
2022-12-11T14:32:02.863Z,2.20
2022-12-11T14:34:37.325Z,2.20
2022-12-11T14:37:09.017Z,2.00
2022-12-11T14:39:45.901Z,2.00
2022-12-11T14:42:20.939Z,2.00
2022-12-11T14:44:56.484Z,1.80
2022-12-11T14:47:34.080Z,1.90
2022-12-11T14:50:08.238Z,1.80
2022-12-11T14:52:43.157Z,1.70
2022-12-11T14:55:19.140Z,1.70
2022-12-11T14:57:52.881Z,1.70
2022-12-11T15:00:28.140Z,1.60
2022-12-11T15:03:05.196Z,1.60
2022-12-11T15:05:40.825Z,1.50
2022-12-11T15:08:25.044Z,1.50
2022-12-11T15:11:13.559Z,1.60
2022-12-11T15:13:55.625Z,1.50
2022-12-11T15:16:27.887Z,1.50
2022-12-11T15:18:59.011Z,1.60
2022-12-11T15:21:33.477Z,1.60
2022-12-11T15:24:07.061Z,1.60
2022-12-11T15:26:39.281Z,1.60
2022-12-11T15:29:27.431Z,1.60
2022-12-11T15:32:14.831Z,1.60
2022-12-11T15:34:48.960Z,1.60
2022-12-11T15:37:24.819Z,1.50
2022-12-11T15:39:55.389Z,1.50
2022-12-11T15:42:33.136Z,1.50
2022-12-11T15:45:03.020Z,1.50
2022-12-11T15:47:32.739Z,1.50
2022-12-11T15:50:14.474Z,1.60
2022-12-11T15:52:43.653Z,1.50
2022-12-11T15:55:13.239Z,1.50
2022-12-11T15:57:47.021Z,1.40
2022-12-11T16:00:18.769Z,1.40
2022-12-11T16:02:48.760Z,1.40
2022-12-11T16:05:19.070Z,1.40
2022-12-11T16:07:47.958Z,1.40
2022-12-11T16:10:19.927Z,1.40
2022-12-11T16:12:49.012Z,1.30
2022-12-11T16:15:23.621Z,1.30
2022-12-11T16:18:03.091Z,1.30
2022-12-11T16:20:35.403Z,1.40
2022-12-11T16:23:05.327Z,1.30
2022-12-11T16:25:34.384Z,1.40
2022-12-11T16:28:03.392Z,1.40
2022-12-11T16:30:32.719Z,1.50
2022-12-11T16:33:03.042Z,1.50
2022-12-11T16:35:36.384Z,1.50
2022-12-11T16:38:05.188Z,1.40
2022-12-11T16:40:34.228Z,1.40
2022-12-11T16:43:04.972Z,1.40
2022-12-11T16:45:34.976Z,1.30
2022-12-11T16:48:05.921Z,1.30
2022-12-11T16:50:36.603Z,1.30
2022-12-11T16:53:05.337Z,1.30
2022-12-11T16:55:34.334Z,1.50
2022-12-11T16:58:03.189Z,1.60
2022-12-11T17:00:32.075Z,1.60
2022-12-11T17:03:01.804Z,1.60
2022-12-11T17:05:30.785Z,1.40
2022-12-11T17:08:01.187Z,1.30
2022-12-11T17:10:30.158Z,1.20
2022-12-11T17:12:59.307Z,1.30
2022-12-11T17:15:28.616Z,1.20
2022-12-11T17:17:57.605Z,1.20
2022-12-11T17:20:27.308Z,1.20
2022-12-11T17:22:55.994Z,1.20
2022-12-11T17:25:26.527Z,1.20
2022-12-11T17:27:56.781Z,1.30
2022-12-11T17:30:25.768Z,1.30
2022-12-11T17:32:54.915Z,1.20
2022-12-11T17:35:24.253Z,1.10
2022-12-11T17:37:53.280Z,1.10
2022-12-11T17:40:23.594Z,1.10
2022-12-11T17:42:53.875Z,1.10
2022-12-11T17:45:22.861Z,1.10
2022-12-11T17:47:51.937Z,1.10
2022-12-11T17:50:21.006Z,1.10
2022-12-11T17:52:49.897Z,1.30
2022-12-11T17:55:19.069Z,1.30
2022-12-11T17:57:47.849Z,1.30
2022-12-11T18:00:19.651Z,1.30
2022-12-11T18:02:48.391Z,1.30
2022-12-11T18:05:17.252Z,1.20
2022-12-11T18:07:58.057Z,1.20
2022-12-11T18:10:29.566Z,1.20
2022-12-11T18:13:01.127Z,1.20
2022-12-11T18:15:32.275Z,1.20
2022-12-11T18:18:01.461Z,1.10
2022-12-11T18:20:37.430Z,1.00
2022-12-11T18:23:07.362Z,1.00
2022-12-11T18:25:36.236Z,1.00
2022-12-11T18:28:06.374Z,1.00
2022-12-11T18:30:36.878Z,0.90
2022-12-11T18:33:05.803Z,0.90
2022-12-11T18:35:34.757Z,0.90
2022-12-11T18:38:03.681Z,0.90
2022-12-11T18:40:33.094Z,0.90
2022-12-11T18:43:02.031Z,1.00
2022-12-11T18:45:30.783Z,1.00
2022-12-11T18:48:01.226Z,1.00
2022-12-11T18:50:30.111Z,0.90
2022-12-11T18:52:58.828Z,0.90
2022-12-11T18:55:27.913Z,1.00
2022-12-11T18:57:57.015Z,1.10
2022-12-11T19:00:26.108Z,1.20
2022-12-11T19:02:55.081Z,1.20
2022-12-11T19:05:25.415Z,1.30
2022-12-11T19:08:03.030Z,1.20
2022-12-11T19:10:33.881Z,1.20
2022-12-11T19:13:03.187Z,1.10
2022-12-11T19:15:31.860Z,1.10
2022-12-11T19:18:00.673Z,1.00
2022-12-11T19:20:48.452Z,1.00
2022-12-11T19:23:18.583Z,1.10
2022-12-11T19:25:51.328Z,1.20
2022-12-11T19:28:20.564Z,1.20
2022-12-11T19:30:51.391Z,1.10
2022-12-11T19:33:20.510Z,1.10
2022-12-11T19:35:51.063Z,1.10
2022-12-11T19:38:19.763Z,1.00
2022-12-11T19:40:49.078Z,1.00
2022-12-11T19:43:19.618Z,0.90
2022-12-11T19:45:48.965Z,0.90
2022-12-11T19:48:18.718Z,0.90
2022-12-11T19:50:47.547Z,0.80
2022-12-11T19:53:18.121Z,0.80
2022-12-11T19:55:52.382Z,0.80
2022-12-11T19:58:21.888Z,0.80
2022-12-11T20:00:51.430Z,0.80
2022-12-11T20:03:20.406Z,0.80
2022-12-11T20:05:49.313Z,0.70
2022-12-11T20:08:43.584Z,0.60
2022-12-11T20:11:17.323Z,0.60
2022-12-11T20:13:47.457Z,0.60
2022-12-11T20:16:28.880Z,0.50
2022-12-11T20:19:09.438Z,0.50
2022-12-11T20:21:38.225Z,0.60
2022-12-11T20:24:09.599Z,0.50
2022-12-11T20:26:39.074Z,0.60
2022-12-11T20:29:09.227Z,0.50
2022-12-11T20:31:38.536Z,0.60
2022-12-11T20:34:08.375Z,0.60
2022-12-11T20:36:37.066Z,0.60
2022-12-11T20:39:07.549Z,0.60
2022-12-11T20:41:36.203Z,0.60
2022-12-11T20:44:04.867Z,0.50
2022-12-11T20:46:33.657Z,0.60
2022-12-11T20:49:02.294Z,0.50
2022-12-11T20:51:32.823Z,0.40
2022-12-11T20:54:02.048Z,0.50
2022-12-11T20:56:32.858Z,0.60
2022-12-11T20:59:02.155Z,0.60
2022-12-11T21:01:34.967Z,0.70
2022-12-11T21:04:04.407Z,0.70
2022-12-11T21:06:36.108Z,0.70
2022-12-11T21:09:09.487Z,0.80
2022-12-11T21:11:39.721Z,0.70
2022-12-11T21:14:08.993Z,0.70
2022-12-11T21:16:39.509Z,0.70
2022-12-11T21:19:12.450Z,0.70
2022-12-11T21:21:46.415Z,0.70
2022-12-11T21:24:19.417Z,0.70
2022-12-11T21:26:51.052Z,0.70
2022-12-11T21:29:20.559Z,0.60
2022-12-11T21:31:49.898Z,0.60
2022-12-11T21:34:25.253Z,0.50
2022-12-11T21:36:57.303Z,0.60
2022-12-11T21:39:28.429Z,0.50
2022-12-11T21:42:00.632Z,0.50
2022-12-11T21:47:20.797Z,0.40
2022-12-11T21:49:50.121Z,0.40
2022-12-11T21:52:19.096Z,0.50
2022-12-11T21:54:48.580Z,0.40
2022-12-11T21:57:24.386Z,0.40
2022-12-11T21:59:55.216Z,0.50
2022-12-11T22:02:24.256Z,0.40
2022-12-11T22:04:54.242Z,0.50
2022-12-11T22:07:23.193Z,0.40
2022-12-11T22:09:52.358Z,0.50
2022-12-11T22:12:26.922Z,0.40
2022-12-11T22:14:56.147Z,0.40
2022-12-11T22:17:25.213Z,0.40
2022-12-11T22:19:54.092Z,0.40
2022-12-11T22:22:23.097Z,0.40
2022-12-11T22:24:51.973Z,0.50
2022-12-11T22:27:24.048Z,0.40
2022-12-11T22:30:02.572Z,0.50
2022-12-11T22:32:31.723Z,0.50
2022-12-11T22:35:00.762Z,0.40
2022-12-11T22:37:30.260Z,0.40
2022-12-11T22:39:59.188Z,0.40
2022-12-11T22:42:29.715Z,0.50
2022-12-11T22:44:58.800Z,0.50
2022-12-11T22:47:28.306Z,0.40
2022-12-11T22:49:57.395Z,0.40
2022-12-11T22:52:26.505Z,0.50
2022-12-11T22:54:55.810Z,0.40
2022-12-11T22:57:24.835Z,0.50
2022-12-11T22:59:56.963Z,0.40
2022-12-11T23:02:26.145Z,0.50
2022-12-11T23:04:54.983Z,0.40
2022-12-11T23:07:23.802Z,0.40
2022-12-11T23:09:52.788Z,0.40
2022-12-11T23:12:21.604Z,0.40
2022-12-11T23:14:50.611Z,0.50
2022-12-11T23:17:20.955Z,0.40
2022-12-11T23:19:49.918Z,0.40
2022-12-11T23:22:19.279Z,0.40
2022-12-11T23:24:48.168Z,0.40
2022-12-11T23:27:17.301Z,0.40
2022-12-11T23:29:46.609Z,0.30
2022-12-11T23:32:15.709Z,0.40
2022-12-11T23:34:46.027Z,0.40
2022-12-11T23:37:15.581Z,0.40
2022-12-11T23:39:44.424Z,0.40
2022-12-11T23:42:13.208Z,0.20
2022-12-11T23:44:41.902Z,0.20
2022-12-11T23:47:11.200Z,0.20
2022-12-11T23:49:39.838Z,0.10
2022-12-11T23:52:12.371Z,0.10
2022-12-11T23:54:41.222Z,0.20
2022-12-11T23:57:10.180Z,0.20
2022-12-11T23:59:39.046Z,0.20
